sensor_id;sensor_type;location;lat;lon;timestamp;temperature;humidity
9157;DHT22;4613;48.392;9.998;2022-12-18T00:01:22;-4.20;99.90
9157;DHT22;4613;48.392;9.998;2022-12-18T00:04:21;-4.40;99.90
9157;DHT22;4613;48.392;9.998;2022-12-18T00:07:10;-4.30;99.90
9157;DHT22;4613;48.392;9.998;2022-12-18T00:09:59;-4.20;99.90
9157;DHT22;4613;48.392;9.998;2022-12-18T00:12:50;-4.10;99.90
9157;DHT22;4613;48.392;9.998;2022-12-18T00:15:39;-4.20;99.90
9157;DHT22;4613;48.392;9.998;2022-12-18T00:18:28;-4.20;99.90
9157;DHT22;4613;48.392;9.998;2022-12-18T00:21:19;-4.20;99.90
9157;DHT22;4613;48.392;9.998;2022-12-18T00:24:09;-4.20;99.90
9157;DHT22;4613;48.392;9.998;2022-12-18T00:26:58;-4.30;99.90
9157;DHT22;4613;48.392;9.998;2022-12-18T00:29:48;-4.30;99.90
9157;DHT22;4613;48.392;9.998;2022-12-18T00:32:40;-4.20;99.90
9157;DHT22;4613;48.392;9.998;2022-12-18T00:35:31;-4.10;99.90
9157;DHT22;4613;48.392;9.998;2022-12-18T00:38:20;-4.10;99.90
9157;DHT22;4613;48.392;9.998;2022-12-18T00:41:11;-4.10;99.90
9157;DHT22;4613;48.392;9.998;2022-12-18T00:44:03;-4.20;99.90
9157;DHT22;4613;48.392;9.998;2022-12-18T00:46:52;-4.20;99.90
9157;DHT22;4613;48.392;9.998;2022-12-18T00:49:41;-4.10;99.90
9157;DHT22;4613;48.392;9.998;2022-12-18T00:52:31;-4.10;99.90
9157;DHT22;4613;48.392;9.998;2022-12-18T00:55:20;-4.10;99.90
9157;DHT22;4613;48.392;9.998;2022-12-18T00:58:10;-4.20;99.90
9157;DHT22;4613;48.392;9.998;2022-12-18T01:00:59;-4.10;99.90
9157;DHT22;4613;48.392;9.998;2022-12-18T01:03:48;-4.00;99.90
9157;DHT22;4613;48.392;9.998;2022-12-18T01:06:38;-4.20;99.90
9157;DHT22;4613;48.392;9.998;2022-12-18T01:09:28;-4.30;99.90
9157;DHT22;4613;48.392;9.998;2022-12-18T01:12:18;-4.30;99.90
9157;DHT22;4613;48.392;9.998;2022-12-18T01:15:07;-4.20;99.90
9157;DHT22;4613;48.392;9.998;2022-12-18T01:17:56;-4.30;99.90
9157;DHT22;4613;48.392;9.998;2022-12-18T01:20:49;-4.30;99.90
9157;DHT22;4613;48.392;9.998;2022-12-18T01:23:38;-4.20;99.90
9157;DHT22;4613;48.392;9.998;2022-12-18T01:26:28;-4.40;99.90
9157;DHT22;4613;48.392;9.998;2022-12-18T01:29:20;-4.50;99.90
9157;DHT22;4613;48.392;9.998;2022-12-18T01:32:09;-4.50;99.90
9157;DHT22;4613;48.392;9.998;2022-12-18T01:34:58;-4.40;99.90
9157;DHT22;4613;48.392;9.998;2022-12-18T01:37:54;-4.40;99.90
9157;DHT22;4613;48.392;9.998;2022-12-18T01:40:44;-4.50;99.90
9157;DHT22;4613;48.392;9.998;2022-12-18T01:46:33;-4.50;99.90
9157;DHT22;4613;48.392;9.998;2022-12-18T01:49:24;-4.50;99.90
9157;DHT22;4613;48.392;9.998;2022-12-18T01:52:14;-4.50;99.90
9157;DHT22;4613;48.392;9.998;2022-12-18T01:55:05;-4.60;99.90
9157;DHT22;4613;48.392;9.998;2022-12-18T01:57:57;-4.60;99.90
9157;DHT22;4613;48.392;9.998;2022-12-18T02:00:47;-4.50;99.90
9157;DHT22;4613;48.392;9.998;2022-12-18T02:03:37;-4.60;99.90
9157;DHT22;4613;48.392;9.998;2022-12-18T02:06:40;-4.60;99.90
9157;DHT22;4613;48.392;9.998;2022-12-18T02:10:02;-4.60;99.90
9157;DHT22;4613;48.392;9.998;2022-12-18T02:12:56;-4.60;99.90
9157;DHT22;4613;48.392;9.998;2022-12-18T02:19:11;-4.10;99.90
9157;DHT22;4613;48.392;9.998;2022-12-18T02:22:26;-4.40;99.90
9157;DHT22;4613;48.392;9.998;2022-12-18T02:25:38;-4.50;99.90
9157;DHT22;4613;48.392;9.998;2022-12-18T02:28:51;-4.60;99.90
9157;DHT22;4613;48.392;9.998;2022-12-18T02:31:53;-4.70;99.90
9157;DHT22;4613;48.392;9.998;2022-12-18T02:34:44;-4.60;99.90
9157;DHT22;4613;48.392;9.998;2022-12-18T02:37:39;-4.60;99.90
9157;DHT22;4613;48.392;9.998;2022-12-18T02:40:31;-4.70;99.90
9157;DHT22;4613;48.392;9.998;2022-12-18T02:43:22;-4.60;99.90
9157;DHT22;4613;48.392;9.998;2022-12-18T02:46:28;-4.60;99.90
9157;DHT22;4613;48.392;9.998;2022-12-18T02:59:02;-4.50;99.90
9157;DHT22;4613;48.392;9.998;2022-12-18T03:05:28;-4.30;99.90
9157;DHT22;4613;48.392;9.998;2022-12-18T03:08:28;-4.40;99.90
9157;DHT22;4613;48.392;9.998;2022-12-18T03:11:20;-4.40;99.90
9157;DHT22;4613;48.392;9.998;2022-12-18T03:14:34;-4.50;99.90
9157;DHT22;4613;48.392;9.998;2022-12-18T03:17:27;-4.30;99.90
9157;DHT22;4613;48.392;9.998;2022-12-18T03:20:21;-4.50;99.90
9157;DHT22;4613;48.392;9.998;2022-12-18T03:23:14;-4.50;99.90
9157;DHT22;4613;48.392;9.998;2022-12-18T03:26:11;-4.50;99.90
9157;DHT22;4613;48.392;9.998;2022-12-18T03:29:08;-4.60;99.90
9157;DHT22;4613;48.392;9.998;2022-12-18T03:32:05;-4.70;99.90
9157;DHT22;4613;48.392;9.998;2022-12-18T03:34:59;-4.60;99.90
9157;DHT22;4613;48.392;9.998;2022-12-18T03:37:54;-4.50;99.90
9157;DHT22;4613;48.392;9.998;2022-12-18T03:47:21;-4.70;99.90
9157;DHT22;4613;48.392;9.998;2022-12-18T03:50:19;-4.60;99.90
9157;DHT22;4613;48.392;9.998;2022-12-18T03:56:31;-4.90;99.90
9157;DHT22;4613;48.392;9.998;2022-12-18T03:59:24;-4.80;99.90
9157;DHT22;4613;48.392;9.998;2022-12-18T04:02:17;-4.70;99.90
9157;DHT22;4613;48.392;9.998;2022-12-18T04:05:09;-5.00;99.90
9157;DHT22;4613;48.392;9.998;2022-12-18T04:08:03;-4.90;99.90
9157;DHT22;4613;48.392;9.998;2022-12-18T04:10:56;-4.90;99.90
9157;DHT22;4613;48.392;9.998;2022-12-18T04:13:46;-5.00;99.90
9157;DHT22;4613;48.392;9.998;2022-12-18T04:16:43;-4.90;99.90
9157;DHT22;4613;48.392;9.998;2022-12-18T04:19:38;-4.80;99.90
9157;DHT22;4613;48.392;9.998;2022-12-18T04:22:28;-4.70;99.90
9157;DHT22;4613;48.392;9.998;2022-12-18T04:25:21;-4.70;99.90
9157;DHT22;4613;48.392;9.998;2022-12-18T04:28:27;-4.80;99.90
9157;DHT22;4613;48.392;9.998;2022-12-18T04:31:16;-4.80;99.90
9157;DHT22;4613;48.392;9.998;2022-12-18T04:34:06;-4.80;99.90
9157;DHT22;4613;48.392;9.998;2022-12-18T04:37:02;-5.00;99.90
9157;DHT22;4613;48.392;9.998;2022-12-18T04:39:52;-4.90;99.90
9157;DHT22;4613;48.392;9.998;2022-12-18T04:42:49;-4.80;99.90
9157;DHT22;4613;48.392;9.998;2022-12-18T04:45:38;-4.80;99.90
9157;DHT22;4613;48.392;9.998;2022-12-18T04:48:27;-4.60;99.90
9157;DHT22;4613;48.392;9.998;2022-12-18T04:51:17;-4.80;99.90
9157;DHT22;4613;48.392;9.998;2022-12-18T04:54:07;-4.80;99.90
9157;DHT22;4613;48.392;9.998;2022-12-18T04:56:56;-4.80;99.90
9157;DHT22;4613;48.392;9.998;2022-12-18T04:59:45;-4.90;99.90
9157;DHT22;4613;48.392;9.998;2022-12-18T05:02:34;-4.80;99.90
9157;DHT22;4613;48.392;9.998;2022-12-18T05:05:24;-4.80;99.90
9157;DHT22;4613;48.392;9.998;2022-12-18T05:08:13;-4.80;99.90
9157;DHT22;4613;48.392;9.998;2022-12-18T05:11:11;-4.90;99.90
9157;DHT22;4613;48.392;9.998;2022-12-18T05:14:01;-4.90;99.90
9157;DHT22;4613;48.392;9.998;2022-12-18T05:16:50;-4.90;99.90
9157;DHT22;4613;48.392;9.998;2022-12-18T05:19:42;-4.80;99.90
9157;DHT22;4613;48.392;9.998;2022-12-18T05:22:32;-4.80;99.90
9157;DHT22;4613;48.392;9.998;2022-12-18T05:25:22;-4.90;99.90
9157;DHT22;4613;48.392;9.998;2022-12-18T05:28:12;-4.90;99.90
9157;DHT22;4613;48.392;9.998;2022-12-18T05:31:03;-4.90;99.90
9157;DHT22;4613;48.392;9.998;2022-12-18T05:33:52;-4.80;99.90
9157;DHT22;4613;48.392;9.998;2022-12-18T05:36:42;-4.80;99.90
9157;DHT22;4613;48.392;9.998;2022-12-18T05:39:32;-4.90;99.90
9157;DHT22;4613;48.392;9.998;2022-12-18T05:42:23;-4.80;99.90
9157;DHT22;4613;48.392;9.998;2022-12-18T05:45:12;-4.80;99.90
9157;DHT22;4613;48.392;9.998;2022-12-18T05:48:01;-5.00;99.90
9157;DHT22;4613;48.392;9.998;2022-12-18T05:50:51;-5.00;99.90
9157;DHT22;4613;48.392;9.998;2022-12-18T05:53:41;-5.10;99.90
9157;DHT22;4613;48.392;9.998;2022-12-18T05:56:31;-5.10;99.90
9157;DHT22;4613;48.392;9.998;2022-12-18T05:59:20;-5.10;99.90
9157;DHT22;4613;48.392;9.998;2022-12-18T06:02:10;-4.90;99.90
9157;DHT22;4613;48.392;9.998;2022-12-18T06:05:00;-4.80;99.90
9157;DHT22;4613;48.392;9.998;2022-12-18T06:07:49;-4.70;99.90
9157;DHT22;4613;48.392;9.998;2022-12-18T06:10:40;-4.70;99.90
9157;DHT22;4613;48.392;9.998;2022-12-18T06:13:29;-4.90;99.90
9157;DHT22;4613;48.392;9.998;2022-12-18T06:16:18;-4.80;99.90
9157;DHT22;4613;48.392;9.998;2022-12-18T06:19:12;-4.90;99.90
9157;DHT22;4613;48.392;9.998;2022-12-18T06:22:02;-4.80;99.90
9157;DHT22;4613;48.392;9.998;2022-12-18T06:24:52;-4.70;99.90
9157;DHT22;4613;48.392;9.998;2022-12-18T06:27:41;-4.90;99.90
9157;DHT22;4613;48.392;9.998;2022-12-18T06:30:32;-4.70;99.90
9157;DHT22;4613;48.392;9.998;2022-12-18T06:33:21;-4.70;99.90
9157;DHT22;4613;48.392;9.998;2022-12-18T06:36:12;-4.60;99.90
9157;DHT22;4613;48.392;9.998;2022-12-18T06:39:02;-4.80;99.90
9157;DHT22;4613;48.392;9.998;2022-12-18T06:41:52;-4.80;99.90
9157;DHT22;4613;48.392;9.998;2022-12-18T06:44:43;-4.80;99.90
9157;DHT22;4613;48.392;9.998;2022-12-18T06:47:42;-4.70;99.90
9157;DHT22;4613;48.392;9.998;2022-12-18T06:50:31;-4.60;99.90
9157;DHT22;4613;48.392;9.998;2022-12-18T06:53:21;-4.50;99.90
9157;DHT22;4613;48.392;9.998;2022-12-18T06:56:11;-4.60;99.90
9157;DHT22;4613;48.392;9.998;2022-12-18T06:59:00;-4.60;99.90
9157;DHT22;4613;48.392;9.998;2022-12-18T07:01:49;-4.70;99.90
9157;DHT22;4613;48.392;9.998;2022-12-18T07:04:38;-4.60;99.90
9157;DHT22;4613;48.392;9.998;2022-12-18T07:07:27;-4.60;99.90
9157;DHT22;4613;48.392;9.998;2022-12-18T07:10:17;-4.50;99.90
9157;DHT22;4613;48.392;9.998;2022-12-18T07:13:07;-4.50;99.90
9157;DHT22;4613;48.392;9.998;2022-12-18T07:16:13;-4.40;99.90
9157;DHT22;4613;48.392;9.998;2022-12-18T07:19:04;-4.40;99.90
9157;DHT22;4613;48.392;9.998;2022-12-18T07:21:54;-4.60;99.90
9157;DHT22;4613;48.392;9.998;2022-12-18T07:24:44;-4.50;99.90
9157;DHT22;4613;48.392;9.998;2022-12-18T07:27:33;-4.50;99.90
9157;DHT22;4613;48.392;9.998;2022-12-18T07:30:22;-4.40;99.90
9157;DHT22;4613;48.392;9.998;2022-12-18T07:33:12;-4.40;99.90
9157;DHT22;4613;48.392;9.998;2022-12-18T07:36:03;-4.40;99.90
9157;DHT22;4613;48.392;9.998;2022-12-18T07:38:53;-4.50;99.90
9157;DHT22;4613;48.392;9.998;2022-12-18T07:41:45;-4.70;99.90
9157;DHT22;4613;48.392;9.998;2022-12-18T07:45:02;-4.80;99.90
9157;DHT22;4613;48.392;9.998;2022-12-18T07:47:54;-4.50;99.90
9157;DHT22;4613;48.392;9.998;2022-12-18T07:50:44;-4.40;99.90
9157;DHT22;4613;48.392;9.998;2022-12-18T07:53:36;-4.60;99.90
9157;DHT22;4613;48.392;9.998;2022-12-18T07:56:26;-4.10;99.90
9157;DHT22;4613;48.392;9.998;2022-12-18T07:59:15;-4.10;99.90
9157;DHT22;4613;48.392;9.998;2022-12-18T08:02:04;-4.10;99.90
9157;DHT22;4613;48.392;9.998;2022-12-18T08:04:53;-3.90;99.90
9157;DHT22;4613;48.392;9.998;2022-12-18T08:07:43;-3.90;99.90
9157;DHT22;4613;48.392;9.998;2022-12-18T08:10:32;-4.10;99.90
9157;DHT22;4613;48.392;9.998;2022-12-18T08:13:21;-4.10;99.90
9157;DHT22;4613;48.392;9.998;2022-12-18T08:16:12;-4.10;99.90
9157;DHT22;4613;48.392;9.998;2022-12-18T08:19:02;-4.10;99.90
9157;DHT22;4613;48.392;9.998;2022-12-18T08:21:52;-4.20;99.90
9157;DHT22;4613;48.392;9.998;2022-12-18T08:24:41;-4.50;99.90
9157;DHT22;4613;48.392;9.998;2022-12-18T08:27:30;-4.50;99.90
9157;DHT22;4613;48.392;9.998;2022-12-18T08:30:20;-4.20;99.90
9157;DHT22;4613;48.392;9.998;2022-12-18T08:33:10;-4.10;99.90
9157;DHT22;4613;48.392;9.998;2022-12-18T08:36:00;-4.20;99.90
9157;DHT22;4613;48.392;9.998;2022-12-18T08:38:50;-4.10;99.90
9157;DHT22;4613;48.392;9.998;2022-12-18T08:41:40;-4.00;99.90
9157;DHT22;4613;48.392;9.998;2022-12-18T08:44:30;-4.00;99.90
9157;DHT22;4613;48.392;9.998;2022-12-18T08:47:28;-4.00;99.90
9157;DHT22;4613;48.392;9.998;2022-12-18T08:50:19;-4.10;99.90
9157;DHT22;4613;48.392;9.998;2022-12-18T08:53:08;-4.00;99.90
9157;DHT22;4613;48.392;9.998;2022-12-18T08:55:57;-3.90;99.90
9157;DHT22;4613;48.392;9.998;2022-12-18T08:58:47;-4.00;99.90
9157;DHT22;4613;48.392;9.998;2022-12-18T09:01:39;-3.90;99.90
9157;DHT22;4613;48.392;9.998;2022-12-18T09:04:29;-3.70;99.90
9157;DHT22;4613;48.392;9.998;2022-12-18T09:07:18;-3.70;99.90
9157;DHT22;4613;48.392;9.998;2022-12-18T09:10:08;-3.60;99.90
9157;DHT22;4613;48.392;9.998;2022-12-18T09:12:58;-3.70;99.90
9157;DHT22;4613;48.392;9.998;2022-12-18T09:15:49;-3.70;99.90
9157;DHT22;4613;48.392;9.998;2022-12-18T09:18:39;-3.60;99.90
9157;DHT22;4613;48.392;9.998;2022-12-18T09:21:31;-3.70;99.90
9157;DHT22;4613;48.392;9.998;2022-12-18T09:24:21;-3.70;99.90
9157;DHT22;4613;48.392;9.998;2022-12-18T09:27:10;-3.70;99.90
9157;DHT22;4613;48.392;9.998;2022-12-18T09:30:00;-3.80;99.90
9157;DHT22;4613;48.392;9.998;2022-12-18T09:32:50;-3.70;99.90
9157;DHT22;4613;48.392;9.998;2022-12-18T09:35:44;-3.80;99.90
9157;DHT22;4613;48.392;9.998;2022-12-18T09:38:35;-3.90;99.90
9157;DHT22;4613;48.392;9.998;2022-12-18T09:47:38;-3.80;99.90
9157;DHT22;4613;48.392;9.998;2022-12-18T09:50:36;-3.60;99.90
9157;DHT22;4613;48.392;9.998;2022-12-18T09:53:31;-3.90;99.90
9157;DHT22;4613;48.392;9.998;2022-12-18T09:56:23;-3.90;99.90
9157;DHT22;4613;48.392;9.998;2022-12-18T09:59:24;-3.80;99.90
9157;DHT22;4613;48.392;9.998;2022-12-18T10:02:23;-3.60;99.90
9157;DHT22;4613;48.392;9.998;2022-12-18T10:05:17;-4.10;99.90
9157;DHT22;4613;48.392;9.998;2022-12-18T10:18:06;-3.70;99.90
9157;DHT22;4613;48.392;9.998;2022-12-18T10:21:09;-3.60;99.90
9157;DHT22;4613;48.392;9.998;2022-12-18T10:24:13;-4.30;99.90
9157;DHT22;4613;48.392;9.998;2022-12-18T10:27:21;-4.00;99.90
9157;DHT22;4613;48.392;9.998;2022-12-18T10:30:16;-4.00;99.90
9157;DHT22;4613;48.392;9.998;2022-12-18T10:33:08;-3.80;99.90
9157;DHT22;4613;48.392;9.998;2022-12-18T10:35:58;-4.20;99.90
9157;DHT22;4613;48.392;9.998;2022-12-18T10:38:49;-4.30;99.90
9157;DHT22;4613;48.392;9.998;2022-12-18T10:41:38;-4.20;99.90
9157;DHT22;4613;48.392;9.998;2022-12-18T10:44:28;-3.90;99.90
9157;DHT22;4613;48.392;9.998;2022-12-18T10:47:20;-3.80;99.90
9157;DHT22;4613;48.392;9.998;2022-12-18T10:53:27;-3.50;99.90
9157;DHT22;4613;48.392;9.998;2022-12-18T10:56:20;-3.70;99.90
9157;DHT22;4613;48.392;9.998;2022-12-18T11:02:36;-4.10;99.90
9157;DHT22;4613;48.392;9.998;2022-12-18T11:05:33;-3.90;99.90
9157;DHT22;4613;48.392;9.998;2022-12-18T11:08:22;-3.50;99.90
9157;DHT22;4613;48.392;9.998;2022-12-18T11:11:23;-3.30;99.90
9157;DHT22;4613;48.392;9.998;2022-12-18T11:15:03;-3.60;99.90
9157;DHT22;4613;48.392;9.998;2022-12-18T11:17:35;-4.10;99.90
9157;DHT22;4613;48.392;9.998;2022-12-18T11:20:43;-4.00;99.90
9157;DHT22;4613;48.392;9.998;2022-12-18T11:23:59;-3.80;99.90
9157;DHT22;4613;48.392;9.998;2022-12-18T11:26:49;-4.10;99.90
9157;DHT22;4613;48.392;9.998;2022-12-18T11:29:41;-4.00;99.90
9157;DHT22;4613;48.392;9.998;2022-12-18T11:32:37;-4.10;99.90
9157;DHT22;4613;48.392;9.998;2022-12-18T11:38:44;-3.90;99.90
9157;DHT22;4613;48.392;9.998;2022-12-18T11:41:59;-3.80;99.90
9157;DHT22;4613;48.392;9.998;2022-12-18T11:48:32;-3.50;99.90
9157;DHT22;4613;48.392;9.998;2022-12-18T11:51:35;-3.50;99.90
9157;DHT22;4613;48.392;9.998;2022-12-18T11:54:29;-4.00;99.90
9157;DHT22;4613;48.392;9.998;2022-12-18T11:57:36;-3.70;99.90
9157;DHT22;4613;48.392;9.998;2022-12-18T12:00:29;-3.40;99.90
9157;DHT22;4613;48.392;9.998;2022-12-18T12:13:37;-4.10;99.90
9157;DHT22;4613;48.392;9.998;2022-12-18T12:16:43;-4.30;99.90
9157;DHT22;4613;48.392;9.998;2022-12-18T12:23:01;-3.60;99.90
9157;DHT22;4613;48.392;9.998;2022-12-18T12:26:03;-3.50;99.90
9157;DHT22;4613;48.392;9.998;2022-12-18T12:38:33;-3.70;99.90
9157;DHT22;4613;48.392;9.998;2022-12-18T12:41:26;-4.10;99.90
9157;DHT22;4613;48.392;9.998;2022-12-18T12:44:45;-4.00;99.90
9157;DHT22;4613;48.392;9.998;2022-12-18T12:47:44;-4.10;99.90
9157;DHT22;4613;48.392;9.998;2022-12-18T12:50:42;-4.10;99.90
9157;DHT22;4613;48.392;9.998;2022-12-18T12:53:39;-4.00;99.90
9157;DHT22;4613;48.392;9.998;2022-12-18T13:00:09;-4.00;99.90
9157;DHT22;4613;48.392;9.998;2022-12-18T13:03:11;-4.20;99.90
9157;DHT22;4613;48.392;9.998;2022-12-18T13:06:23;-3.90;99.90
9157;DHT22;4613;48.392;9.998;2022-12-18T13:09:30;-3.80;99.90
9157;DHT22;4613;48.392;9.998;2022-12-18T13:12:21;-4.20;99.90
9157;DHT22;4613;48.392;9.998;2022-12-18T13:15:47;-4.00;99.90
9157;DHT22;4613;48.392;9.998;2022-12-18T13:18:38;-4.00;99.90
9157;DHT22;4613;48.392;9.998;2022-12-18T13:21:33;-4.00;99.90
9157;DHT22;4613;48.392;9.998;2022-12-18T13:24:27;-3.90;99.90
9157;DHT22;4613;48.392;9.998;2022-12-18T13:30:56;-4.10;99.90
9157;DHT22;4613;48.392;9.998;2022-12-18T13:33:49;-4.10;99.90
9157;DHT22;4613;48.392;9.998;2022-12-18T13:36:42;-3.70;99.90
9157;DHT22;4613;48.392;9.998;2022-12-18T13:39:37;-3.30;99.90
9157;DHT22;4613;48.392;9.998;2022-12-18T13:42:40;-3.70;99.90
9157;DHT22;4613;48.392;9.998;2022-12-18T13:49:28;-4.10;99.90
9157;DHT22;4613;48.392;9.998;2022-12-18T13:52:35;-4.20;99.90
9157;DHT22;4613;48.392;9.998;2022-12-18T13:55:32;-4.10;99.90
9157;DHT22;4613;48.392;9.998;2022-12-18T13:58:29;-4.30;99.90
9157;DHT22;4613;48.392;9.998;2022-12-18T14:01:23;-3.90;99.90
9157;DHT22;4613;48.392;9.998;2022-12-18T14:04:20;-3.70;99.90
9157;DHT22;4613;48.392;9.998;2022-12-18T14:07:25;-4.10;99.90
9157;DHT22;4613;48.392;9.998;2022-12-18T14:10:26;-4.20;99.90
9157;DHT22;4613;48.392;9.998;2022-12-18T14:13:27;-4.50;99.90
9157;DHT22;4613;48.392;9.998;2022-12-18T14:16:17;-4.30;99.90
9157;DHT22;4613;48.392;9.998;2022-12-18T14:19:17;-4.60;99.90
9157;DHT22;4613;48.392;9.998;2022-12-18T14:22:18;-4.60;99.90
9157;DHT22;4613;48.392;9.998;2022-12-18T14:25:17;-4.50;99.90
9157;DHT22;4613;48.392;9.998;2022-12-18T14:28:11;-4.30;99.90
9157;DHT22;4613;48.392;9.998;2022-12-18T14:31:01;-4.20;99.90
9157;DHT22;4613;48.392;9.998;2022-12-18T14:33:52;-4.30;99.90
9157;DHT22;4613;48.392;9.998;2022-12-18T14:36:52;-4.70;99.90
9157;DHT22;4613;48.392;9.998;2022-12-18T14:40:01;-4.70;99.90
9157;DHT22;4613;48.392;9.998;2022-12-18T14:42:54;-4.50;99.90
9157;DHT22;4613;48.392;9.998;2022-12-18T14:45:44;-4.60;99.90
9157;DHT22;4613;48.392;9.998;2022-12-18T14:48:41;-4.60;99.90
9157;DHT22;4613;48.392;9.998;2022-12-18T14:51:32;-4.40;99.90
9157;DHT22;4613;48.392;9.998;2022-12-18T14:54:24;-4.50;99.90
9157;DHT22;4613;48.392;9.998;2022-12-18T14:57:32;-4.40;99.90
9157;DHT22;4613;48.392;9.998;2022-12-18T15:00:25;-4.20;99.90
9157;DHT22;4613;48.392;9.998;2022-12-18T15:03:20;-4.20;99.90
9157;DHT22;4613;48.392;9.998;2022-12-18T15:06:21;-4.10;99.90
9157;DHT22;4613;48.392;9.998;2022-12-18T15:09:25;-4.20;99.90
9157;DHT22;4613;48.392;9.998;2022-12-18T15:12:33;-4.70;99.90
9157;DHT22;4613;48.392;9.998;2022-12-18T15:18:33;-4.80;99.90
9157;DHT22;4613;48.392;9.998;2022-12-18T15:21:24;-4.40;99.90
9157;DHT22;4613;48.392;9.998;2022-12-18T15:24:26;-4.30;99.90
9157;DHT22;4613;48.392;9.998;2022-12-18T15:27:25;-4.40;99.90
9157;DHT22;4613;48.392;9.998;2022-12-18T15:30:18;-4.90;99.90
9157;DHT22;4613;48.392;9.998;2022-12-18T15:33:27;-4.90;99.90
9157;DHT22;4613;48.392;9.998;2022-12-18T15:36:17;-4.70;99.90
9157;DHT22;4613;48.392;9.998;2022-12-18T15:39:09;-4.60;99.90
9157;DHT22;4613;48.392;9.998;2022-12-18T15:42:01;-4.50;99.90
9157;DHT22;4613;48.392;9.998;2022-12-18T15:45:15;-4.50;99.90
9157;DHT22;4613;48.392;9.998;2022-12-18T15:48:20;-4.80;99.90
9157;DHT22;4613;48.392;9.998;2022-12-18T15:51:33;-4.60;99.90
9157;DHT22;4613;48.392;9.998;2022-12-18T15:54:23;-4.50;99.90
9157;DHT22;4613;48.392;9.998;2022-12-18T15:57:32;-1.40;99.90
9157;DHT22;4613;48.392;9.998;2022-12-18T16:00:21;-1.70;99.90
9157;DHT22;4613;48.392;9.998;2022-12-18T16:03:12;-3.40;99.90
9157;DHT22;4613;48.392;9.998;2022-12-18T16:06:07;-4.40;99.90
9157;DHT22;4613;48.392;9.998;2022-12-18T16:09:00;-4.60;99.90
9157;DHT22;4613;48.392;9.998;2022-12-18T16:11:50;-4.50;99.90
9157;DHT22;4613;48.392;9.998;2022-12-18T16:14:39;-4.40;99.90
9157;DHT22;4613;48.392;9.998;2022-12-18T16:17:29;-4.40;99.90
9157;DHT22;4613;48.392;9.998;2022-12-18T16:20:26;-4.30;99.90
9157;DHT22;4613;48.392;9.998;2022-12-18T16:23:17;-4.30;99.90
9157;DHT22;4613;48.392;9.998;2022-12-18T16:26:07;-4.20;99.90
9157;DHT22;4613;48.392;9.998;2022-12-18T16:28:57;-3.90;99.90
9157;DHT22;4613;48.392;9.998;2022-12-18T16:31:47;-4.00;99.90
9157;DHT22;4613;48.392;9.998;2022-12-18T16:34:38;-3.90;99.90
9157;DHT22;4613;48.392;9.998;2022-12-18T16:37:28;-4.00;99.90
9157;DHT22;4613;48.392;9.998;2022-12-18T16:40:21;-3.80;99.90
9157;DHT22;4613;48.392;9.998;2022-12-18T16:43:11;-4.50;99.90
9157;DHT22;4613;48.392;9.998;2022-12-18T16:46:00;-4.30;99.90
9157;DHT22;4613;48.392;9.998;2022-12-18T16:48:50;-4.60;99.90
9157;DHT22;4613;48.392;9.998;2022-12-18T16:51:40;-4.60;99.90
9157;DHT22;4613;48.392;9.998;2022-12-18T16:54:31;-4.60;99.90
9157;DHT22;4613;48.392;9.998;2022-12-18T16:57:23;-4.80;99.90
9157;DHT22;4613;48.392;9.998;2022-12-18T17:00:13;-4.40;99.90
9157;DHT22;4613;48.392;9.998;2022-12-18T17:03:03;-4.20;99.90
9157;DHT22;4613;48.392;9.998;2022-12-18T17:05:53;-4.60;99.90
9157;DHT22;4613;48.392;9.998;2022-12-18T17:08:53;-4.90;99.90
9157;DHT22;4613;48.392;9.998;2022-12-18T17:11:43;-4.60;99.90
9157;DHT22;4613;48.392;9.998;2022-12-18T17:14:33;-4.90;99.90
9157;DHT22;4613;48.392;9.998;2022-12-18T17:17:23;-4.80;99.90
9157;DHT22;4613;48.392;9.998;2022-12-18T17:20:12;-4.60;99.90
9157;DHT22;4613;48.392;9.998;2022-12-18T17:23:02;-4.60;99.90
9157;DHT22;4613;48.392;9.998;2022-12-18T17:25:56;-4.50;99.90
9157;DHT22;4613;48.392;9.998;2022-12-18T17:28:46;-4.70;99.90
9157;DHT22;4613;48.392;9.998;2022-12-18T17:31:37;-4.70;99.90
9157;DHT22;4613;48.392;9.998;2022-12-18T17:34:27;-4.90;99.90
9157;DHT22;4613;48.392;9.998;2022-12-18T17:37:17;-4.90;99.90
9157;DHT22;4613;48.392;9.998;2022-12-18T17:40:07;-4.90;99.90
9157;DHT22;4613;48.392;9.998;2022-12-18T17:42:57;-4.90;99.90
9157;DHT22;4613;48.392;9.998;2022-12-18T17:45:48;-4.80;99.90
9157;DHT22;4613;48.392;9.998;2022-12-18T17:48:37;-5.00;99.90
9157;DHT22;4613;48.392;9.998;2022-12-18T17:51:32;-5.10;99.90
9157;DHT22;4613;48.392;9.998;2022-12-18T17:54:23;-4.90;99.90
9157;DHT22;4613;48.392;9.998;2022-12-18T17:57:15;-4.70;99.90
9157;DHT22;4613;48.392;9.998;2022-12-18T18:00:06;-4.80;99.90
9157;DHT22;4613;48.392;9.998;2022-12-18T18:02:58;-5.00;99.90
9157;DHT22;4613;48.392;9.998;2022-12-18T18:05:53;-4.90;99.90
9157;DHT22;4613;48.392;9.998;2022-12-18T18:08:45;-4.80;99.90
9157;DHT22;4613;48.392;9.998;2022-12-18T18:11:37;-4.50;99.90
9157;DHT22;4613;48.392;9.998;2022-12-18T18:14:46;-4.30;99.90
9157;DHT22;4613;48.392;9.998;2022-12-18T18:17:35;-4.40;99.90
9157;DHT22;4613;48.392;9.998;2022-12-18T18:20:25;-4.40;99.90
9157;DHT22;4613;48.392;9.998;2022-12-18T18:23:18;-4.40;99.90
9157;DHT22;4613;48.392;9.998;2022-12-18T18:26:08;-4.60;99.90
9157;DHT22;4613;48.392;9.998;2022-12-18T18:28:59;-4.40;99.90
9157;DHT22;4613;48.392;9.998;2022-12-18T18:31:49;-4.50;99.90
9157;DHT22;4613;48.392;9.998;2022-12-18T18:34:40;-4.30;99.90
9157;DHT22;4613;48.392;9.998;2022-12-18T18:37:29;-4.20;99.90
9157;DHT22;4613;48.392;9.998;2022-12-18T18:40:19;-4.30;99.90
9157;DHT22;4613;48.392;9.998;2022-12-18T18:43:10;-4.20;99.90
9157;DHT22;4613;48.392;9.998;2022-12-18T18:46:03;-4.20;99.90
9157;DHT22;4613;48.392;9.998;2022-12-18T18:48:54;-4.00;99.90
9157;DHT22;4613;48.392;9.998;2022-12-18T18:51:48;-3.90;99.90
9157;DHT22;4613;48.392;9.998;2022-12-18T18:54:38;-4.00;99.90
9157;DHT22;4613;48.392;9.998;2022-12-18T18:57:28;-4.00;99.90
9157;DHT22;4613;48.392;9.998;2022-12-18T19:00:18;-4.40;99.90
9157;DHT22;4613;48.392;9.998;2022-12-18T19:03:08;-4.70;99.90
9157;DHT22;4613;48.392;9.998;2022-12-18T19:05:59;-4.60;99.90
9157;DHT22;4613;48.392;9.998;2022-12-18T19:08:51;-4.50;99.90
9157;DHT22;4613;48.392;9.998;2022-12-18T19:11:41;-4.60;99.90
9157;DHT22;4613;48.392;9.998;2022-12-18T19:14:49;-4.50;99.90
9157;DHT22;4613;48.392;9.998;2022-12-18T19:17:43;-4.60;99.90
9157;DHT22;4613;48.392;9.998;2022-12-18T19:20:34;-4.60;99.90
9157;DHT22;4613;48.392;9.998;2022-12-18T19:23:24;-4.40;99.90
9157;DHT22;4613;48.392;9.998;2022-12-18T19:26:18;-4.20;99.90
9157;DHT22;4613;48.392;9.998;2022-12-18T19:29:15;-4.20;99.90
9157;DHT22;4613;48.392;9.998;2022-12-18T19:32:07;-4.10;99.90
9157;DHT22;4613;48.392;9.998;2022-12-18T19:34:58;-4.40;99.90
9157;DHT22;4613;48.392;9.998;2022-12-18T19:37:48;-4.70;99.90
9157;DHT22;4613;48.392;9.998;2022-12-18T19:40:41;-4.60;99.90
9157;DHT22;4613;48.392;9.998;2022-12-18T19:43:30;-4.40;99.90
9157;DHT22;4613;48.392;9.998;2022-12-18T19:46:27;-4.60;99.90
9157;DHT22;4613;48.392;9.998;2022-12-18T19:49:20;-4.50;99.90
9157;DHT22;4613;48.392;9.998;2022-12-18T19:52:09;-4.60;99.90
9157;DHT22;4613;48.392;9.998;2022-12-18T19:54:59;-4.60;99.90
9157;DHT22;4613;48.392;9.998;2022-12-18T19:57:48;-4.50;99.90
9157;DHT22;4613;48.392;9.998;2022-12-18T20:00:38;-4.50;99.90
9157;DHT22;4613;48.392;9.998;2022-12-18T20:03:28;-4.50;99.90
9157;DHT22;4613;48.392;9.998;2022-12-18T20:06:30;-5.00;99.90
9157;DHT22;4613;48.392;9.998;2022-12-18T20:09:20;-5.10;99.90
9157;DHT22;4613;48.392;9.998;2022-12-18T20:12:09;-5.00;99.90
9157;DHT22;4613;48.392;9.998;2022-12-18T20:14:59;-4.70;99.90
9157;DHT22;4613;48.392;9.998;2022-12-18T20:17:48;-4.50;99.90
9157;DHT22;4613;48.392;9.998;2022-12-18T20:20:38;-4.60;99.90
9157;DHT22;4613;48.392;9.998;2022-12-18T20:23:28;-4.40;99.90
9157;DHT22;4613;48.392;9.998;2022-12-18T20:26:18;-4.50;99.90
9157;DHT22;4613;48.392;9.998;2022-12-18T20:29:08;-4.40;99.90